createdAt,value
2022-11-29T00:00:43.239Z,7.47
2022-11-29T00:01:43.284Z,7.49
2022-11-29T00:02:43.391Z,7.46
2022-11-29T00:03:43.221Z,7.47
2022-11-29T00:04:43.589Z,7.42
2022-11-29T00:05:43.181Z,7.43
2022-11-29T00:06:43.177Z,7.37
2022-11-29T00:07:43.205Z,7.37
2022-11-29T00:08:43.171Z,7.33
2022-11-29T00:09:43.160Z,7.33
2022-11-29T00:10:43.135Z,7.34
2022-11-29T00:11:43.275Z,7.33
2022-11-29T00:12:43.123Z,7.37
2022-11-29T00:13:43.168Z,7.39
2022-11-29T00:14:43.387Z,7.39
2022-11-29T00:15:43.094Z,7.40
2022-11-29T00:16:43.215Z,7.36
2022-11-29T00:17:43.061Z,7.36
2022-11-29T00:18:43.054Z,7.36
2022-11-29T00:19:43.071Z,7.34
2022-11-29T00:20:43.043Z,7.29
2022-11-29T00:21:43.019Z,7.39
2022-11-29T00:22:43.038Z,7.37
2022-11-29T00:23:43.001Z,7.39
2022-11-29T00:24:43.294Z,7.40
2022-11-29T00:25:42.989Z,7.44
2022-11-29T00:26:42.980Z,7.47
2022-11-29T00:27:43.082Z,7.47
2022-11-29T00:28:42.979Z,7.54
2022-11-29T00:29:42.942Z,7.54
2022-11-29T00:30:42.972Z,7.52
2022-11-29T00:31:42.940Z,7.52
2022-11-29T00:32:42.979Z,7.57
2022-11-29T00:33:42.923Z,7.55
2022-11-29T00:34:43.154Z,7.57
2022-11-29T00:35:42.899Z,7.57
2022-11-29T00:36:42.905Z,7.58
2022-11-29T00:37:42.895Z,7.58
2022-11-29T00:38:42.871Z,7.61
2022-11-29T00:39:42.860Z,7.61
2022-11-29T00:40:42.856Z,7.60
2022-11-29T00:41:42.853Z,7.57
2022-11-29T00:42:42.847Z,7.57
2022-11-29T00:43:42.803Z,7.57
2022-11-29T00:44:43.074Z,7.52
2022-11-29T00:45:42.826Z,7.58
2022-11-29T00:46:42.787Z,7.64
2022-11-29T00:47:42.796Z,7.66
2022-11-29T00:48:42.799Z,7.69
2022-11-29T00:49:42.772Z,7.69
2022-11-29T00:50:42.745Z,7.68
2022-11-29T00:51:42.746Z,7.69
2022-11-29T00:52:42.725Z,7.77
2022-11-29T00:53:42.757Z,7.76
2022-11-29T00:54:43.188Z,7.73
2022-11-29T00:55:42.691Z,7.76
2022-11-29T00:56:42.678Z,7.73
2022-11-29T00:57:42.666Z,7.74
2022-11-29T00:58:42.714Z,7.77
2022-11-29T00:59:42.663Z,7.78
2022-11-29T01:00:42.655Z,7.77
2022-11-29T01:01:42.679Z,7.78
2022-11-29T01:02:42.696Z,7.77
2022-11-29T01:03:42.648Z,7.77
2022-11-29T01:04:43.010Z,7.78
2022-11-29T01:05:42.605Z,7.80
2022-11-29T01:06:42.603Z,7.80
2022-11-29T01:07:42.627Z,7.76
2022-11-29T01:08:42.561Z,7.76
2022-11-29T01:09:42.588Z,7.77
2022-11-29T01:10:42.570Z,7.77
2022-11-29T01:11:42.542Z,7.78
2022-11-29T01:12:42.544Z,7.78
2022-11-29T01:13:42.516Z,7.80
2022-11-29T01:14:42.920Z,7.80
2022-11-29T01:15:42.496Z,7.80
2022-11-29T01:16:42.573Z,7.80
2022-11-29T01:17:42.482Z,7.77
2022-11-29T01:18:42.512Z,7.71
2022-11-29T01:19:47.866Z,7.68
2022-11-29T01:20:42.507Z,7.64
2022-11-29T01:21:42.516Z,7.60
2022-11-29T01:22:42.445Z,7.57
2022-11-29T01:23:42.477Z,7.61
2022-11-29T01:24:42.806Z,7.52
2022-11-29T01:25:42.394Z,7.50
2022-11-29T01:26:42.406Z,7.50
2022-11-29T01:27:42.373Z,7.47
2022-11-29T01:28:42.372Z,7.50
2022-11-29T01:29:42.424Z,7.44
2022-11-29T01:30:42.427Z,7.49
2022-11-29T01:31:42.337Z,7.49
2022-11-29T01:32:42.388Z,7.50
2022-11-29T01:33:42.355Z,7.52
2022-11-29T01:34:42.893Z,7.55
2022-11-29T01:35:42.317Z,7.57
2022-11-29T01:36:42.315Z,7.61
2022-11-29T01:37:42.323Z,7.61
2022-11-29T01:38:42.286Z,7.62
2022-11-29T01:39:42.289Z,7.66
2022-11-29T01:40:42.264Z,7.68
2022-11-29T01:41:42.268Z,7.71
2022-11-29T01:42:42.234Z,7.71
2022-11-29T01:43:42.226Z,7.69
2022-11-29T01:44:42.681Z,7.68
2022-11-29T01:45:42.296Z,7.71
2022-11-29T01:46:42.189Z,7.80
2022-11-29T01:47:42.234Z,7.88
2022-11-29T01:48:42.192Z,7.98
2022-11-29T01:49:42.201Z,7.99
2022-11-29T01:50:42.165Z,8.09
2022-11-29T01:51:42.172Z,8.16
2022-11-29T01:52:42.158Z,8.13
2022-11-29T01:53:42.169Z,8.12
2022-11-29T01:54:42.488Z,8.13
2022-11-29T01:55:42.149Z,8.13
2022-11-29T01:56:42.193Z,8.10
2022-11-29T01:57:42.109Z,8.09
2022-11-29T01:58:42.083Z,8.06
2022-11-29T01:59:42.072Z,8.09
2022-11-29T02:00:42.060Z,8.10
2022-11-29T02:01:42.154Z,8.14
2022-11-29T02:02:42.101Z,8.14
2022-11-29T02:03:42.031Z,8.12
2022-11-29T02:04:42.253Z,8.10
2022-11-29T02:05:42.039Z,8.04
2022-11-29T02:06:41.995Z,7.99
2022-11-29T02:07:42.065Z,7.96
2022-11-29T02:08:41.987Z,7.95
2022-11-29T02:09:41.971Z,7.95
2022-11-29T02:10:41.993Z,7.92
2022-11-29T02:11:41.972Z,7.84
2022-11-29T02:12:41.951Z,7.81
2022-11-29T02:13:41.945Z,7.77
2022-11-29T02:14:42.071Z,7.78
2022-11-29T02:15:41.943Z,7.78
2022-11-29T02:16:41.942Z,7.81
2022-11-29T02:17:41.884Z,7.80
2022-11-29T02:18:41.883Z,7.83
2022-11-29T02:19:41.865Z,7.87
2022-11-29T02:20:41.884Z,7.91
2022-11-29T02:21:41.873Z,7.98
2022-11-29T02:22:41.857Z,8.01
2022-11-29T02:23:41.838Z,7.95
2022-11-29T02:24:42.136Z,7.91
2022-11-29T02:25:41.816Z,7.86
2022-11-29T02:26:41.826Z,7.81
2022-11-29T02:27:41.785Z,7.80
2022-11-29T02:28:41.785Z,7.76
2022-11-29T02:29:41.799Z,7.73
2022-11-29T02:30:41.846Z,7.69
2022-11-29T02:31:41.767Z,7.74
2022-11-29T02:32:41.738Z,7.83
2022-11-29T02:33:41.756Z,7.99
2022-11-29T02:34:41.892Z,7.95
2022-11-29T02:35:41.747Z,7.99
2022-11-29T02:36:41.729Z,7.98
2022-11-29T02:37:41.736Z,7.95
2022-11-29T02:38:41.700Z,7.94
2022-11-29T02:39:41.708Z,7.92
2022-11-29T02:40:41.682Z,7.84
2022-11-29T02:41:41.672Z,7.81
2022-11-29T02:42:41.631Z,7.84
2022-11-29T02:43:41.637Z,7.87
2022-11-29T02:44:41.703Z,7.92
2022-11-29T02:45:41.655Z,7.91
2022-11-29T02:46:41.632Z,7.95
2022-11-29T02:47:41.614Z,7.99
2022-11-29T02:48:41.590Z,8.02
2022-11-29T02:49:41.682Z,8.06
2022-11-29T02:50:41.580Z,8.06
2022-11-29T02:51:41.650Z,8.09
2022-11-29T02:52:41.708Z,8.10
2022-11-29T02:53:41.538Z,8.14
2022-11-29T02:54:41.544Z,8.13
2022-11-29T02:55:41.563Z,8.10
2022-11-29T02:56:41.608Z,8.02
2022-11-29T02:57:41.497Z,8.01
2022-11-29T02:58:41.491Z,8.02
2022-11-29T02:59:41.486Z,8.04
2022-11-29T03:00:41.519Z,8.01
2022-11-29T03:01:41.539Z,8.02
2022-11-29T03:02:41.483Z,8.04
2022-11-29T03:03:41.431Z,8.04
2022-11-29T03:04:41.540Z,8.05
2022-11-29T03:05:41.457Z,8.13
2022-11-29T03:06:41.450Z,8.16
2022-11-29T03:07:41.488Z,8.21
2022-11-29T03:08:41.385Z,8.29
2022-11-29T03:09:41.388Z,8.28
2022-11-29T03:10:41.354Z,8.28
2022-11-29T03:11:41.389Z,8.28
2022-11-29T03:12:41.339Z,8.20
2022-11-29T03:13:41.354Z,8.19
2022-11-29T03:14:41.360Z,8.13
2022-11-29T03:15:41.354Z,8.10
2022-11-29T03:16:43.216Z,8.17
2022-11-29T03:17:41.334Z,8.21
2022-11-29T03:18:41.329Z,8.24
2022-11-29T03:19:41.267Z,8.29
2022-11-29T03:20:41.259Z,8.32
2022-11-29T03:21:41.263Z,8.24
2022-11-29T03:22:41.309Z,8.24
2022-11-29T03:23:41.305Z,8.23
2022-11-29T03:24:41.222Z,8.24
2022-11-29T03:25:41.254Z,8.20
2022-11-29T03:26:41.209Z,8.21
2022-11-29T03:27:41.204Z,8.23
2022-11-29T03:28:41.198Z,8.24
2022-11-29T03:29:41.229Z,8.29
2022-11-29T03:30:41.315Z,8.32
2022-11-29T03:31:41.163Z,8.32
2022-11-29T03:32:41.154Z,8.21
2022-11-29T03:33:41.156Z,8.09
2022-11-29T03:34:41.120Z,7.95
2022-11-29T03:35:41.155Z,7.84
2022-11-29T03:36:41.130Z,7.78
2022-11-29T03:37:41.164Z,7.76
2022-11-29T03:38:41.111Z,7.73
2022-11-29T03:39:41.071Z,7.71
2022-11-29T03:40:41.083Z,7.64
2022-11-29T03:41:41.060Z,7.61
2022-11-29T03:42:41.064Z,7.58
2022-11-29T03:43:41.062Z,7.58
2022-11-29T03:44:41.041Z,7.57
2022-11-29T03:45:41.036Z,7.54
2022-11-29T03:46:41.102Z,7.61
2022-11-29T03:47:41.005Z,7.71
2022-11-29T03:48:41.013Z,7.81
2022-11-29T03:49:40.990Z,7.87
2022-11-29T03:50:40.975Z,7.95
2022-11-29T03:51:40.961Z,8.05
2022-11-29T03:52:40.957Z,8.12
2022-11-29T03:53:40.940Z,8.17
2022-11-29T03:54:40.969Z,8.14
2022-11-29T03:55:40.911Z,8.09
2022-11-29T03:56:40.932Z,8.01
2022-11-29T03:57:40.891Z,7.94
2022-11-29T03:58:40.886Z,7.94
2022-11-29T03:59:40.915Z,7.86
2022-11-29T04:00:40.869Z,7.84
2022-11-29T04:01:40.945Z,7.80
2022-11-29T04:02:40.908Z,7.71
2022-11-29T04:03:40.858Z,7.64
2022-11-29T04:04:40.831Z,7.60
2022-11-29T04:05:40.816Z,7.60
2022-11-29T04:06:40.801Z,7.58
2022-11-29T04:07:40.857Z,7.61
2022-11-29T04:08:40.784Z,7.61
2022-11-29T04:09:40.773Z,7.66
2022-11-29T04:10:40.757Z,7.77
2022-11-29T04:11:40.755Z,7.86
2022-11-29T04:12:40.762Z,7.96
2022-11-29T04:13:40.734Z,8.04
2022-11-29T04:14:40.732Z,8.14
2022-11-29T04:15:40.771Z,8.23
2022-11-29T04:16:40.710Z,8.29
2022-11-29T04:17:40.729Z,8.29
2022-11-29T04:18:40.685Z,8.26
2022-11-29T04:19:40.681Z,8.16
2022-11-29T04:20:44.212Z,8.13
2022-11-29T04:21:40.665Z,8.10
2022-11-29T04:22:40.652Z,8.09
2022-11-29T04:23:40.659Z,8.02
2022-11-29T04:24:40.626Z,7.92
2022-11-29T04:25:40.639Z,7.86
2022-11-29T04:26:40.649Z,7.86
2022-11-29T04:27:40.609Z,7.94
2022-11-29T04:28:40.583Z,7.98
2022-11-29T04:29:40.585Z,7.95
2022-11-29T04:30:40.560Z,7.92
2022-11-29T04:31:40.609Z,7.94
2022-11-29T04:32:40.556Z,7.88
2022-11-29T04:33:40.572Z,7.91
2022-11-29T04:34:40.539Z,7.92
2022-11-29T04:35:40.513Z,7.99
2022-11-29T04:36:40.530Z,8.02
2022-11-29T04:37:40.503Z,8.05
2022-11-29T04:38:40.491Z,8.10
2022-11-29T04:39:40.505Z,8.02
2022-11-29T04:40:40.498Z,7.96
2022-11-29T04:41:40.461Z,7.92
2022-11-29T04:42:40.458Z,7.87
2022-11-29T04:43:40.443Z,7.86
2022-11-29T04:44:40.428Z,7.88
2022-11-29T04:45:40.441Z,7.91
2022-11-29T04:46:40.418Z,7.92
2022-11-29T04:47:40.427Z,7.94
2022-11-29T04:48:40.450Z,7.91
2022-11-29T04:49:40.381Z,7.99
2022-11-29T04:50:40.494Z,7.98
2022-11-29T04:51:40.358Z,7.99
2022-11-29T04:52:40.366Z,7.95
2022-11-29T04:53:40.345Z,7.96
2022-11-29T04:54:40.356Z,7.98
2022-11-29T04:55:40.358Z,7.94
2022-11-29T04:56:40.342Z,7.92
2022-11-29T04:57:40.313Z,7.88
2022-11-29T04:58:40.287Z,7.91
2022-11-29T04:59:40.294Z,7.88
2022-11-29T05:00:40.285Z,7.88
2022-11-29T05:01:40.277Z,7.81
2022-11-29T05:02:40.304Z,7.80
2022-11-29T05:03:40.236Z,7.78
2022-11-29T05:04:40.233Z,7.81
2022-11-29T05:05:40.271Z,7.81
2022-11-29T05:06:40.224Z,7.83
2022-11-29T05:07:40.278Z,7.91
2022-11-29T05:08:40.236Z,7.99
2022-11-29T05:09:40.257Z,8.06
2022-11-29T05:10:40.194Z,8.04
2022-11-29T05:11:40.161Z,8.02
2022-11-29T05:12:40.161Z,8.01
2022-11-29T05:13:40.194Z,8.04
2022-11-29T05:14:40.119Z,8.10
2022-11-29T05:15:40.195Z,8.13
2022-11-29T05:16:40.110Z,8.17
2022-11-29T05:17:40.117Z,8.21
2022-11-29T05:18:40.087Z,8.20
2022-11-29T05:19:40.088Z,8.23
2022-11-29T05:20:40.063Z,8.20
2022-11-29T05:21:40.076Z,8.24
2022-11-29T05:22:40.090Z,8.19
2022-11-29T05:23:39.999Z,8.17
2022-11-29T05:24:40.037Z,8.13
2022-11-29T05:25:40.026Z,8.04
2022-11-29T05:26:40.010Z,8.01
2022-11-29T05:27:40.021Z,7.94
2022-11-29T05:28:40.028Z,7.92
2022-11-29T05:29:39.981Z,7.88
2022-11-29T05:30:40.000Z,7.84
2022-11-29T05:31:39.977Z,7.81
2022-11-29T05:32:39.943Z,7.77
2022-11-29T05:33:39.938Z,7.80
2022-11-29T05:34:39.944Z,7.76
2022-11-29T05:35:39.966Z,7.71
2022-11-29T05:36:39.938Z,7.71
2022-11-29T05:37:39.919Z,7.76
2022-11-29T05:38:39.915Z,7.77
2022-11-29T05:39:39.934Z,7.80
2022-11-29T05:40:39.887Z,7.78
2022-11-29T05:41:39.868Z,7.83
2022-11-29T05:42:39.852Z,7.81
2022-11-29T05:43:39.884Z,7.81
2022-11-29T05:44:39.852Z,7.83
2022-11-29T05:45:39.833Z,7.84
2022-11-29T05:46:39.863Z,7.83
2022-11-29T05:47:39.836Z,7.77
2022-11-29T05:48:39.772Z,7.76
2022-11-29T05:49:39.819Z,7.76
2022-11-29T05:50:39.768Z,7.76
2022-11-29T05:51:39.764Z,7.76
2022-11-29T05:52:39.809Z,7.68
2022-11-29T05:53:39.694Z,7.69
2022-11-29T05:54:39.734Z,7.73
2022-11-29T05:55:39.684Z,7.78
2022-11-29T05:56:39.750Z,7.80
2022-11-29T05:57:39.744Z,7.87
2022-11-29T05:58:39.691Z,7.94
2022-11-29T05:59:39.744Z,8.01
2022-11-29T06:00:39.757Z,8.02
2022-11-29T06:01:39.720Z,8.05
2022-11-29T06:02:39.714Z,8.06
2022-11-29T06:03:39.696Z,8.09
2022-11-29T06:04:39.643Z,8.09
2022-11-29T06:05:39.627Z,8.05
2022-11-29T06:06:39.654Z,8.01
2022-11-29T06:07:39.583Z,7.96
2022-11-29T06:08:39.619Z,7.96
2022-11-29T06:09:39.593Z,8.01
2022-11-29T06:10:39.537Z,7.95
2022-11-29T06:11:39.638Z,7.98
2022-11-29T06:12:39.626Z,8.05
2022-11-29T06:13:39.555Z,8.10
2022-11-29T06:14:39.559Z,8.10
2022-11-29T06:15:39.525Z,8.10
2022-11-29T06:16:39.516Z,8.10
2022-11-29T06:17:39.635Z,8.09
2022-11-29T06:18:39.545Z,8.05
2022-11-29T06:19:39.450Z,8.01
2022-11-29T06:20:39.468Z,7.94
2022-11-29T06:21:39.478Z,7.87
2022-11-29T06:22:39.481Z,7.87
2022-11-29T06:23:39.446Z,7.91
2022-11-29T06:24:39.443Z,8.02
2022-11-29T06:25:39.430Z,8.02
2022-11-29T06:26:39.363Z,8.12
2022-11-29T06:27:39.425Z,8.13
2022-11-29T06:28:39.423Z,8.10
2022-11-29T06:29:39.358Z,8.10
2022-11-29T06:30:39.384Z,8.09
2022-11-29T06:31:39.370Z,8.04
2022-11-29T06:32:39.399Z,8.05
2022-11-29T06:33:39.352Z,8.02
2022-11-29T06:34:39.359Z,8.01
2022-11-29T06:35:39.359Z,7.99
2022-11-29T06:36:39.280Z,7.99
2022-11-29T06:37:39.285Z,8.02
2022-11-29T06:38:39.292Z,8.01
2022-11-29T06:39:39.326Z,8.04
2022-11-29T06:40:39.346Z,8.05
2022-11-29T06:41:39.339Z,8.10
2022-11-29T06:42:39.275Z,8.13
2022-11-29T06:43:39.260Z,8.14
2022-11-29T06:44:39.244Z,8.13
2022-11-29T06:45:39.195Z,8.12
2022-11-29T06:46:39.241Z,8.09
2022-11-29T06:47:39.183Z,8.05
2022-11-29T06:48:39.201Z,8.02
2022-11-29T06:49:39.125Z,7.95
2022-11-29T06:50:39.129Z,7.92
2022-11-29T06:51:39.130Z,7.91
2022-11-29T06:52:39.135Z,7.92
2022-11-29T06:53:39.122Z,7.96
2022-11-29T06:54:39.114Z,7.94
2022-11-29T06:55:39.081Z,7.91
2022-11-29T06:56:40.921Z,7.98
2022-11-29T06:57:39.096Z,8.01
2022-11-29T06:58:39.108Z,8.06
2022-11-29T06:59:39.864Z,8.16
2022-11-29T07:00:39.860Z,8.19
2022-11-29T07:01:39.077Z,8.19
2022-11-29T07:02:39.842Z,8.19
2022-11-29T07:03:39.210Z,8.23
2022-11-29T07:04:45.386Z,8.23
2022-11-29T07:05:38.983Z,8.28
2022-11-29T07:06:39.683Z,8.31
2022-11-29T07:07:38.991Z,8.32
2022-11-29T07:08:38.967Z,8.31
2022-11-29T07:09:38.970Z,8.32
2022-11-29T07:10:38.944Z,8.34
2022-11-29T07:11:38.951Z,8.32
2022-11-29T07:12:38.917Z,8.34
2022-11-29T07:13:38.895Z,8.26
2022-11-29T07:14:38.910Z,8.20
2022-11-29T07:15:38.937Z,8.17
2022-11-29T07:16:38.946Z,8.16
2022-11-29T07:17:38.868Z,8.16
2022-11-29T07:18:38.859Z,8.13
2022-11-29T07:19:38.834Z,8.13
2022-11-29T07:20:38.837Z,8.14
2022-11-29T07:21:38.881Z,8.12
2022-11-29T07:22:38.834Z,8.10
2022-11-29T07:23:38.819Z,8.10
2022-11-29T07:24:38.808Z,8.13
2022-11-29T07:25:38.779Z,8.09
2022-11-29T07:26:38.805Z,8.04
2022-11-29T07:27:38.781Z,8.02
2022-11-29T07:28:38.751Z,8.04
2022-11-29T07:29:38.760Z,8.02
2022-11-29T07:30:38.734Z,8.06
2022-11-29T07:31:38.760Z,8.09
2022-11-29T07:32:38.715Z,8.12
2022-11-29T07:33:38.705Z,8.16
2022-11-29T07:34:38.730Z,8.14
2022-11-29T07:35:38.730Z,8.17
2022-11-29T07:36:38.742Z,8.13
2022-11-29T07:37:38.679Z,8.13
2022-11-29T07:38:38.657Z,8.02
2022-11-29T07:39:39.322Z,8.02
2022-11-29T07:40:38.650Z,7.98
2022-11-29T07:41:38.661Z,8.01
2022-11-29T07:42:39.401Z,7.99
2022-11-29T07:43:38.599Z,8.02
2022-11-29T07:44:38.634Z,7.98
2022-11-29T07:45:38.640Z,8.04
2022-11-29T07:46:38.633Z,8.04
2022-11-29T07:47:38.609Z,8.04
2022-11-29T07:48:38.594Z,8.05
2022-11-29T07:49:38.751Z,8.05
2022-11-29T07:50:39.351Z,8.09
2022-11-29T07:51:38.524Z,8.06
2022-11-29T07:52:38.556Z,8.09
2022-11-29T07:53:38.499Z,8.09
2022-11-29T07:54:38.509Z,8.13
2022-11-29T07:55:38.482Z,8.13
2022-11-29T07:56:38.484Z,8.12
2022-11-29T07:57:38.490Z,8.10
2022-11-29T07:58:38.510Z,8.09
2022-11-29T07:59:39.323Z,8.12
2022-11-29T08:00:38.530Z,8.16
2022-11-29T08:01:38.520Z,8.13
2022-11-29T08:02:38.561Z,8.16
2022-11-29T08:03:38.901Z,8.20
2022-11-29T08:04:38.403Z,8.20
2022-11-29T08:05:38.431Z,8.20
2022-11-29T08:06:38.399Z,8.20
2022-11-29T08:07:38.427Z,8.21
2022-11-29T08:08:43.718Z,8.17
2022-11-29T08:09:38.352Z,8.17
2022-11-29T08:10:38.344Z,8.24
2022-11-29T08:11:38.345Z,8.29
2022-11-29T08:12:38.357Z,8.37
2022-11-29T08:13:38.367Z,8.42
2022-11-29T08:14:38.373Z,8.49
2022-11-29T08:15:38.344Z,8.57
2022-11-29T08:16:38.325Z,8.63
2022-11-29T08:17:38.310Z,8.71
2022-11-29T08:18:38.848Z,8.70
2022-11-29T08:19:38.303Z,8.70
2022-11-29T08:20:39.139Z,8.62
2022-11-29T08:21:38.258Z,8.57
2022-11-29T08:22:38.294Z,8.50
2022-11-29T08:23:38.253Z,8.50
2022-11-29T08:24:38.255Z,8.50
2022-11-29T08:25:38.246Z,8.50
2022-11-29T08:26:38.206Z,8.47
2022-11-29T08:27:38.170Z,8.49
2022-11-29T08:28:38.174Z,8.47
2022-11-29T08:29:38.441Z,8.42
2022-11-29T08:30:38.184Z,8.41
2022-11-29T08:31:38.284Z,8.41
2022-11-29T08:32:38.170Z,8.41
2022-11-29T08:33:38.119Z,8.44
2022-11-29T08:34:38.170Z,8.46
2022-11-29T08:35:38.107Z,8.44
2022-11-29T08:36:38.145Z,8.44
2022-11-29T08:37:38.149Z,8.44
2022-11-29T08:38:38.364Z,8.44
2022-11-29T08:39:38.864Z,8.46
2022-11-29T08:40:38.061Z,8.49
2022-11-29T08:41:38.056Z,8.49
2022-11-29T08:42:38.031Z,8.53
2022-11-29T08:43:38.021Z,8.53
2022-11-29T08:44:38.044Z,8.53
2022-11-29T08:45:38.060Z,8.53
2022-11-29T08:46:38.056Z,8.50
2022-11-29T08:47:38.026Z,8.46
2022-11-29T08:48:37.998Z,8.38
2022-11-29T08:49:37.985Z,8.29
2022-11-29T08:50:38.066Z,8.24
2022-11-29T08:51:40.205Z,8.26
2022-11-29T08:52:38.576Z,8.24
2022-11-29T08:53:38.442Z,8.21
2022-11-29T08:54:37.919Z,8.19
2022-11-29T08:55:37.962Z,8.14
2022-11-29T08:57:40.277Z,8.14
2022-11-29T08:58:37.871Z,8.17
2022-11-29T08:59:37.886Z,8.19
2022-11-29T09:00:37.870Z,8.21
2022-11-29T09:01:37.877Z,8.23
2022-11-29T09:02:37.905Z,8.31
2022-11-29T09:03:37.827Z,8.29
2022-11-29T09:04:37.856Z,8.26
2022-11-29T09:05:37.806Z,8.23
2022-11-29T09:06:37.846Z,8.20
2022-11-29T09:07:37.830Z,8.14
2022-11-29T09:08:37.797Z,8.12
2022-11-29T09:09:48.429Z,8.13
2022-11-29T09:10:39.424Z,8.10
2022-11-29T09:11:37.755Z,8.13
2022-11-29T09:12:37.877Z,8.17
2022-11-29T09:13:39.115Z,8.17
2022-11-29T09:14:37.761Z,8.24
2022-11-29T09:15:37.724Z,8.29
2022-11-29T09:16:37.829Z,8.34
2022-11-29T09:17:37.740Z,8.34
2022-11-29T09:18:38.466Z,8.37
2022-11-29T09:19:37.677Z,8.38
2022-11-29T09:20:37.910Z,8.34
2022-11-29T09:21:37.758Z,8.34
2022-11-29T09:22:37.714Z,8.37
2022-11-29T09:23:37.759Z,8.39
2022-11-29T09:24:37.626Z,8.41
2022-11-29T09:25:37.615Z,8.44
2022-11-29T09:26:37.607Z,8.42
2022-11-29T09:27:37.601Z,8.39
2022-11-29T09:28:37.625Z,8.39
2022-11-29T09:29:39.401Z,8.39
2022-11-29T09:30:37.660Z,8.42
2022-11-29T09:31:37.635Z,8.42
2022-11-29T09:32:37.887Z,8.41
2022-11-29T09:33:37.606Z,8.41
2022-11-29T09:34:37.616Z,8.39
2022-11-29T09:35:37.511Z,8.42
2022-11-29T09:36:37.540Z,8.41
2022-11-29T09:37:37.527Z,8.41
2022-11-29T09:38:38.418Z,8.37
2022-11-29T09:39:37.522Z,8.42
2022-11-29T09:40:37.482Z,8.47
2022-11-29T09:41:37.522Z,8.53
2022-11-29T09:42:37.474Z,8.56
2022-11-29T09:43:37.464Z,8.60
2022-11-29T09:44:37.449Z,8.67
2022-11-29T09:45:38.474Z,8.74
2022-11-29T09:46:37.436Z,8.78
2022-11-29T09:47:40.764Z,8.80
2022-11-29T09:48:37.395Z,8.81
2022-11-29T09:49:37.472Z,8.81
2022-11-29T09:50:37.431Z,8.77
2022-11-29T09:51:41.226Z,8.77
2022-11-29T09:52:37.496Z,8.75
2022-11-29T09:53:37.419Z,8.78
2022-11-29T09:54:37.392Z,8.75
2022-11-29T09:55:37.339Z,8.78
2022-11-29T09:56:37.378Z,8.77
2022-11-29T09:57:37.312Z,8.77
2022-11-29T09:58:37.312Z,8.77
2022-11-29T09:59:37.335Z,8.74
2022-11-29T10:00:37.841Z,8.77
2022-11-29T10:01:37.336Z,8.80
2022-11-29T10:02:37.289Z,8.81
2022-11-29T10:03:37.256Z,8.83
2022-11-29T10:04:37.512Z,8.81
2022-11-29T10:05:37.277Z,8.80
2022-11-29T10:06:37.255Z,8.85
2022-11-29T10:07:37.239Z,8.81
2022-11-29T10:08:37.227Z,8.80
2022-11-29T10:09:37.234Z,8.80
2022-11-29T10:10:37.169Z,8.83
2022-11-29T10:11:37.183Z,8.80
2022-11-29T10:12:37.181Z,8.85
2022-11-29T10:13:37.148Z,8.80
2022-11-29T10:14:37.878Z,8.85
2022-11-29T10:15:37.146Z,8.85
2022-11-29T10:16:37.195Z,8.88
2022-11-29T10:17:37.114Z,8.90
2022-11-29T10:18:37.139Z,8.88
2022-11-29T10:19:37.160Z,8.88
2022-11-29T10:20:40.645Z,8.88
2022-11-29T10:21:37.110Z,8.85
2022-11-29T10:22:37.115Z,8.85
2022-11-29T10:23:37.094Z,8.83
2022-11-29T10:24:37.743Z,8.81
2022-11-29T10:25:37.038Z,8.85
2022-11-29T10:26:37.085Z,8.86
2022-11-29T10:27:37.019Z,8.86
2022-11-29T10:28:37.067Z,8.83
2022-11-29T10:29:37.006Z,8.86
2022-11-29T10:30:37.050Z,8.93
2022-11-29T10:31:36.961Z,8.92
2022-11-29T10:32:36.978Z,8.90
2022-11-29T10:33:36.976Z,8.90
2022-11-29T10:34:36.994Z,8.93
2022-11-29T10:35:36.937Z,8.95
2022-11-29T10:36:36.979Z,9.01
2022-11-29T10:37:36.962Z,9.01
2022-11-29T10:38:36.919Z,9.01
2022-11-29T10:39:36.896Z,9.01
2022-11-29T10:40:37.146Z,9.03
2022-11-29T10:41:36.893Z,9.04
2022-11-29T10:42:36.845Z,9.04
2022-11-29T10:43:36.837Z,9.03
2022-11-29T10:44:36.859Z,8.99
2022-11-29T10:45:36.879Z,8.99
2022-11-29T10:46:36.841Z,9.04
2022-11-29T10:47:36.789Z,9.04
2022-11-29T10:48:36.834Z,9.04
2022-11-29T10:49:37.082Z,9.04
2022-11-29T10:50:37.544Z,9.04
2022-11-29T10:51:36.801Z,9.01
2022-11-29T10:52:36.827Z,8.99
2022-11-29T10:53:36.810Z,8.99
2022-11-29T10:54:36.735Z,8.98
2022-11-29T10:55:36.727Z,9.01
2022-11-29T10:56:36.879Z,9.06
2022-11-29T10:57:36.758Z,9.06
2022-11-29T10:58:36.879Z,9.04
2022-11-29T10:59:36.684Z,9.03
2022-11-29T11:00:36.672Z,8.99
2022-11-29T11:01:37.069Z,8.99
2022-11-29T11:02:36.732Z,8.99
2022-11-29T11:03:36.638Z,9.01
2022-11-29T11:04:36.675Z,9.03
2022-11-29T11:05:36.658Z,8.99
2022-11-29T11:06:36.610Z,8.99
2022-11-29T11:07:36.653Z,9.01
2022-11-29T11:08:36.618Z,9.01
2022-11-29T11:09:36.608Z,8.98
2022-11-29T11:10:36.564Z,8.99
2022-11-29T11:11:36.561Z,8.95
2022-11-29T11:12:36.683Z,8.96
2022-11-29T11:13:36.595Z,8.95
2022-11-29T11:14:36.538Z,8.90
2022-11-29T11:15:36.611Z,8.90
2022-11-29T11:16:37.715Z,8.89
2022-11-29T11:17:36.717Z,8.90
2022-11-29T11:18:36.721Z,8.93
2022-11-29T11:19:36.559Z,8.96
2022-11-29T11:20:36.507Z,8.98
2022-11-29T11:21:36.814Z,9.01
2022-11-29T11:22:36.500Z,9.04
2022-11-29T11:23:42.363Z,8.99
2022-11-29T11:24:36.688Z,8.99
2022-11-29T11:25:36.496Z,9.01
2022-11-29T11:26:36.578Z,9.09
2022-11-29T11:27:36.455Z,9.11
2022-11-29T11:28:36.416Z,9.11
2022-11-29T11:29:36.480Z,9.11
2022-11-29T11:30:36.467Z,9.12
2022-11-29T11:31:36.388Z,9.18
2022-11-29T11:32:36.999Z,9.18
2022-11-29T11:33:36.434Z,9.18
2022-11-29T11:34:36.371Z,9.24
2022-11-29T11:35:36.335Z,9.30
2022-11-29T11:36:36.311Z,9.40
2022-11-29T11:37:36.438Z,9.50
2022-11-29T11:38:36.287Z,9.54
2022-11-29T11:39:36.430Z,9.55
2022-11-29T11:40:36.315Z,9.59
2022-11-29T11:41:36.265Z,9.60
2022-11-29T11:42:36.289Z,9.55
2022-11-29T11:43:36.290Z,9.54
2022-11-29T11:44:51.721Z,9.48
2022-11-29T11:45:36.264Z,9.50
2022-11-29T11:46:36.233Z,9.45
2022-11-29T11:47:36.195Z,9.47
2022-11-29T11:48:36.233Z,9.51
2022-11-29T11:49:36.180Z,9.51
2022-11-29T11:50:36.203Z,9.54
2022-11-29T11:51:36.165Z,9.54
2022-11-29T11:52:40.190Z,9.51
2022-11-29T11:53:36.153Z,9.48
2022-11-29T11:54:36.121Z,9.45
2022-11-29T11:55:36.143Z,9.45
2022-11-29T11:56:36.120Z,9.50
2022-11-29T11:57:36.096Z,9.52
2022-11-29T11:58:36.094Z,9.51
2022-11-29T11:59:36.193Z,9.51
2022-11-29T12:01:02.278Z,9.51
2022-11-29T12:01:36.106Z,9.51
2022-11-29T12:02:36.244Z,9.52
2022-11-29T12:03:36.116Z,9.54
2022-11-29T12:04:36.089Z,9.57
2022-11-29T12:05:36.055Z,9.60
2022-11-29T12:06:36.037Z,9.59
2022-11-29T12:08:06.270Z,9.54
2022-11-29T12:08:36.161Z,9.54
2022-11-29T12:09:36.052Z,9.51
2022-11-29T12:10:35.962Z,9.50
2022-11-29T12:11:36.077Z,9.47
2022-11-29T12:12:35.964Z,9.50
2022-11-29T12:13:35.971Z,9.59
2022-11-29T12:14:37.894Z,9.66
2022-11-29T12:15:36.111Z,9.70
2022-11-29T12:16:35.920Z,9.72
2022-11-29T12:17:35.896Z,9.75
2022-11-29T12:18:35.931Z,9.69
2022-11-29T12:19:35.992Z,9.70
2022-11-29T12:20:35.897Z,9.69
2022-11-29T12:21:35.919Z,9.70
2022-11-29T12:22:35.902Z,9.69
2022-11-29T12:23:35.909Z,9.66
2022-11-29T12:24:35.895Z,9.63
2022-11-29T12:25:35.871Z,9.69
2022-11-29T12:26:56.364Z,9.70
2022-11-29T12:27:35.833Z,9.72
2022-11-29T12:28:35.774Z,9.72
2022-11-29T12:29:35.813Z,9.73
2022-11-29T12:30:35.785Z,9.72
2022-11-29T12:31:35.886Z,9.70
2022-11-29T12:32:35.810Z,9.72
2022-11-29T12:33:35.764Z,9.72
2022-11-29T12:34:35.797Z,9.75
2022-11-29T12:35:35.737Z,9.78
2022-11-29T12:36:35.971Z,9.80
2022-11-29T12:37:35.731Z,9.78
2022-11-29T12:38:35.681Z,9.84
2022-11-29T12:39:35.791Z,9.85
2022-11-29T12:40:35.774Z,9.87
2022-11-29T12:41:35.663Z,9.88
2022-11-29T12:42:35.767Z,9.83
2022-11-29T12:43:35.717Z,9.87
2022-11-29T12:44:35.635Z,9.84
2022-11-29T12:45:35.681Z,9.87
2022-11-29T12:46:35.672Z,9.87
2022-11-29T12:47:36.719Z,9.90
2022-11-29T12:48:35.605Z,9.96
2022-11-29T12:49:35.688Z,10.03
2022-11-29T12:50:35.613Z,10.03
2022-11-29T12:51:35.603Z,10.08
2022-11-29T12:52:35.552Z,10.08
2022-11-29T12:53:35.576Z,10.06
2022-11-29T12:54:35.516Z,10.02
2022-11-29T12:55:35.524Z,10.05
2022-11-29T12:56:35.507Z,10.03
2022-11-29T12:57:35.511Z,10.02
2022-11-29T12:58:35.484Z,9.98
2022-11-29T12:59:35.470Z,10.01
2022-11-29T13:00:35.454Z,10.02
2022-11-29T13:01:35.545Z,9.98
2022-11-29T13:02:39.833Z,9.96
2022-11-29T13:03:35.501Z,9.98
2022-11-29T13:04:35.461Z,10.02
2022-11-29T13:05:36.251Z,10.03
2022-11-29T13:06:35.399Z,10.06
2022-11-29T13:07:35.522Z,10.12
2022-11-29T13:08:35.360Z,10.10
2022-11-29T13:09:35.370Z,10.12
2022-11-29T13:10:35.399Z,10.08
2022-11-29T13:11:35.383Z,10.12
2022-11-29T13:12:41.219Z,10.14
2022-11-29T13:13:35.331Z,10.16
2022-11-29T13:14:42.527Z,10.20
2022-11-29T13:15:35.350Z,10.20
2022-11-29T13:16:35.561Z,10.21
2022-11-29T13:17:35.304Z,10.17
2022-11-29T13:18:35.317Z,10.20